sensor_id;sensor_type;location;lat;lon;timestamp;P1;P2;P0
76784;PMS7003;66893;44.316;0.092;2023-06-24T00:00:05;4.00;4.00;3.25
76784;PMS7003;66893;44.316;0.092;2023-06-24T00:02:32;4.75;3.75;3.00
76784;PMS7003;66893;44.316;0.092;2023-06-24T00:05:01;3.00;3.00;3.00
76784;PMS7003;66893;44.316;0.092;2023-06-24T00:07:28;6.25;4.25;3.25
76784;PMS7003;66893;44.316;0.092;2023-06-24T00:09:54;4.25;3.25;3.00
76784;PMS7003;66893;44.316;0.092;2023-06-24T00:12:19;3.25;3.25;2.75
76784;PMS7003;66893;44.316;0.092;2023-06-24T00:14:48;4.00;4.00;3.25
76784;PMS7003;66893;44.316;0.092;2023-06-24T00:17:15;3.75;3.00;2.25
76784;PMS7003;66893;44.316;0.092;2023-06-24T00:19:41;4.75;4.00;3.00
76784;PMS7003;66893;44.316;0.092;2023-06-24T00:22:07;5.00;5.00;3.25
76784;PMS7003;66893;44.316;0.092;2023-06-24T00:24:32;5.50;4.00;3.00
76784;PMS7003;66893;44.316;0.092;2023-06-24T00:26:57;3.50;3.00;2.25
76784;PMS7003;66893;44.316;0.092;2023-06-24T00:29:23;6.25;6.25;5.25
76784;PMS7003;66893;44.316;0.092;2023-06-24T00:31:48;6.75;6.75;6.00
76784;PMS7003;66893;44.316;0.092;2023-06-24T00:34:14;6.25;6.25;5.00
76784;PMS7003;66893;44.316;0.092;2023-06-24T00:36:39;6.00;6.00;4.75
76784;PMS7003;66893;44.316;0.092;2023-06-24T00:39:05;9.75;5.25;4.00
76784;PMS7003;66893;44.316;0.092;2023-06-24T00:41:32;4.00;4.00;3.50
76784;PMS7003;66893;44.316;0.092;2023-06-24T00:43:58;6.00;6.00;5.00
76784;PMS7003;66893;44.316;0.092;2023-06-24T00:46:24;6.00;6.00;6.00
76784;PMS7003;66893;44.316;0.092;2023-06-24T00:48:57;9.25;6.00;5.00
76784;PMS7003;66893;44.316;0.092;2023-06-24T00:51:23;5.00;5.00;4.00
76784;PMS7003;66893;44.316;0.092;2023-06-24T00:53:54;6.00;6.00;5.00
76784;PMS7003;66893;44.316;0.092;2023-06-24T00:56:25;6.00;5.25;4.00
76784;PMS7003;66893;44.316;0.092;2023-06-24T00:58:53;7.50;5.75;4.50
76784;PMS7003;66893;44.316;0.092;2023-06-24T01:01:19;6.00;5.75;5.25
76784;PMS7003;66893;44.316;0.092;2023-06-24T01:03:45;6.50;6.00;5.75
76784;PMS7003;66893;44.316;0.092;2023-06-24T01:06:11;6.00;6.00;5.00
76784;PMS7003;66893;44.316;0.092;2023-06-24T01:08:38;7.25;7.00;5.50
76784;PMS7003;66893;44.316;0.092;2023-06-24T01:11:04;6.50;5.00;4.00
76784;PMS7003;66893;44.316;0.092;2023-06-24T01:13:29;4.75;4.75;4.00
76784;PMS7003;66893;44.316;0.092;2023-06-24T01:15:55;8.50;6.50;5.75
76784;PMS7003;66893;44.316;0.092;2023-06-24T01:18:35;9.75;6.25;5.25
76784;PMS7003;66893;44.316;0.092;2023-06-24T01:21:11;6.00;6.00;4.00
76784;PMS7003;66893;44.316;0.092;2023-06-24T01:40:00;6.00;6.00;5.00
76784;PMS7003;66893;44.316;0.092;2023-06-24T01:42:31;9.00;6.25;5.25
76784;PMS7003;66893;44.316;0.092;2023-06-24T01:44:58;6.50;5.75;4.75
76784;PMS7003;66893;44.316;0.092;2023-06-24T01:47:25;6.00;6.00;5.00
76784;PMS7003;66893;44.316;0.092;2023-06-24T01:49:53;9.00;5.50;4.25
76784;PMS7003;66893;44.316;0.092;2023-06-24T01:52:21;5.75;5.75;4.00
76784;PMS7003;66893;44.316;0.092;2023-06-24T01:54:48;7.00;7.00;5.50
76784;PMS7003;66893;44.316;0.092;2023-06-24T01:57:16;6.50;6.50;5.25
76784;PMS7003;66893;44.316;0.092;2023-06-24T01:59:45;6.75;5.00;5.00
76784;PMS7003;66893;44.316;0.092;2023-06-24T02:02:12;10.50;7.00;6.00
76784;PMS7003;66893;44.316;0.092;2023-06-24T02:04:38;7.75;5.75;4.25
76784;PMS7003;66893;44.316;0.092;2023-06-24T02:07:05;7.00;5.25;4.00
76784;PMS7003;66893;44.316;0.092;2023-06-24T02:09:33;7.25;6.50;5.25
76784;PMS7003;66893;44.316;0.092;2023-06-24T02:12:00;4.50;4.50;3.00
76784;PMS7003;66893;44.316;0.092;2023-06-24T02:14:27;5.75;5.75;4.00
76784;PMS7003;66893;44.316;0.092;2023-06-24T02:16:55;7.00;7.00;5.50
76784;PMS7003;66893;44.316;0.092;2023-06-24T02:19:24;7.00;6.00;4.50
76784;PMS7003;66893;44.316;0.092;2023-06-24T02:21:51;7.75;7.00;6.00
76784;PMS7003;66893;44.316;0.092;2023-06-24T02:24:19;4.00;4.00;3.50
76784;PMS7003;66893;44.316;0.092;2023-06-24T02:26:45;8.25;7.50;6.00
76784;PMS7003;66893;44.316;0.092;2023-06-24T02:29:12;8.25;6.25;5.00
76784;PMS7003;66893;44.316;0.092;2023-06-24T02:31:38;7.00;6.25;5.00
76784;PMS7003;66893;44.316;0.092;2023-06-24T02:34:04;5.00;5.00;5.00
76784;PMS7003;66893;44.316;0.092;2023-06-24T02:36:30;5.00;5.00;4.25
76784;PMS7003;66893;44.316;0.092;2023-06-24T02:38:56;7.00;6.50;4.25
76784;PMS7003;66893;44.316;0.092;2023-06-24T02:41:21;13.00;7.00;5.00
76784;PMS7003;66893;44.316;0.092;2023-06-24T02:43:47;6.00;4.25;3.75
76784;PMS7003;66893;44.316;0.092;2023-06-24T02:46:12;6.00;6.00;4.50
76784;PMS7003;66893;44.316;0.092;2023-06-24T02:48:40;8.25;5.25;4.75
76784;PMS7003;66893;44.316;0.092;2023-06-24T02:51:07;5.25;5.00;5.00
76784;PMS7003;66893;44.316;0.092;2023-06-24T02:53:35;6.25;5.25;4.25
76784;PMS7003;66893;44.316;0.092;2023-06-24T02:56:03;6.50;5.00;4.75
76784;PMS7003;66893;44.316;0.092;2023-06-24T02:58:30;5.00;4.75;4.00
76784;PMS7003;66893;44.316;0.092;2023-06-24T03:00:58;7.50;6.00;5.00
76784;PMS7003;66893;44.316;0.092;2023-06-24T03:03:24;6.00;5.50;5.00
76784;PMS7003;66893;44.316;0.092;2023-06-24T03:05:51;6.00;6.00;5.00
76784;PMS7003;66893;44.316;0.092;2023-06-24T03:08:19;7.00;4.25;3.00
76784;PMS7003;66893;44.316;0.092;2023-06-24T03:10:44;7.00;6.00;4.75
76784;PMS7003;66893;44.316;0.092;2023-06-24T03:13:10;6.25;5.00;4.00
76784;PMS7003;66893;44.316;0.092;2023-06-24T03:15:35;7.00;5.00;3.00
76784;PMS7003;66893;44.316;0.092;2023-06-24T03:18:00;9.00;5.50;4.00
76784;PMS7003;66893;44.316;0.092;2023-06-24T03:20:26;6.75;6.25;5.50
76784;PMS7003;66893;44.316;0.092;2023-06-24T03:22:51;5.25;5.25;4.50
76784;PMS7003;66893;44.316;0.092;2023-06-24T03:25:17;5.25;5.00;4.00
76784;PMS7003;66893;44.316;0.092;2023-06-24T03:27:43;5.75;4.50;4.00
76784;PMS7003;66893;44.316;0.092;2023-06-24T03:30:08;5.00;5.00;4.00
76784;PMS7003;66893;44.316;0.092;2023-06-24T03:32:36;6.25;6.00;4.00
76784;PMS7003;66893;44.316;0.092;2023-06-24T03:35:02;5.00;5.00;4.00
76784;PMS7003;66893;44.316;0.092;2023-06-24T03:37:28;4.25;4.25;3.25
76784;PMS7003;66893;44.316;0.092;2023-06-24T03:39:54;5.25;5.25;4.25
76784;PMS7003;66893;44.316;0.092;2023-06-24T03:42:21;5.25;5.25;4.25
76784;PMS7003;66893;44.316;0.092;2023-06-24T03:44:46;5.00;5.00;4.00
76784;PMS7003;66893;44.316;0.092;2023-06-24T03:47:12;4.75;4.75;4.00
76784;PMS7003;66893;44.316;0.092;2023-06-24T03:49:37;7.00;6.00;5.00
76784;PMS7003;66893;44.316;0.092;2023-06-24T03:52:03;6.25;5.00;4.00
76784;PMS7003;66893;44.316;0.092;2023-06-24T03:54:30;6.25;5.75;4.00
76784;PMS7003;66893;44.316;0.092;2023-06-24T03:56:56;5.50;5.50;5.00
76784;PMS7003;66893;44.316;0.092;2023-06-24T03:59:21;5.25;5.25;4.25
76784;PMS7003;66893;44.316;0.092;2023-06-24T04:01:47;6.00;6.00;5.00
76784;PMS7003;66893;44.316;0.092;2023-06-24T04:04:12;6.75;5.25;4.00
76784;PMS7003;66893;44.316;0.092;2023-06-24T04:06:37;5.00;5.00;4.00
76784;PMS7003;66893;44.316;0.092;2023-06-24T04:09:03;7.25;6.75;5.25
76784;PMS7003;66893;44.316;0.092;2023-06-24T04:11:28;5.00;5.00;4.00
76784;PMS7003;66893;44.316;0.092;2023-06-24T04:13:54;5.00;5.00;4.00
76784;PMS7003;66893;44.316;0.092;2023-06-24T04:16:19;5.50;4.50;4.00
76784;PMS7003;66893;44.316;0.092;2023-06-24T04:18:45;6.25;5.50;4.25
76784;PMS7003;66893;44.316;0.092;2023-06-24T04:21:10;5.50;5.50;4.00
76784;PMS7003;66893;44.316;0.092;2023-06-24T04:23:36;5.50;5.50;4.00
76784;PMS7003;66893;44.316;0.092;2023-06-24T04:26:01;5.25;5.25;4.25
76784;PMS7003;66893;44.316;0.092;2023-06-24T04:28:27;5.75;5.75;3.75
76784;PMS7003;66893;44.316;0.092;2023-06-24T04:30:53;9.25;6.00;5.00
76784;PMS7003;66893;44.316;0.092;2023-06-24T04:33:19;6.25;6.00;5.25
76784;PMS7003;66893;44.316;0.092;2023-06-24T04:35:44;8.00;6.00;4.75
76784;PMS7003;66893;44.316;0.092;2023-06-24T04:38:10;6.25;5.00;4.00
76784;PMS7003;66893;44.316;0.092;2023-06-24T04:40:35;7.00;5.00;5.00
76784;PMS7003;66893;44.316;0.092;2023-06-24T04:43:02;5.00;4.00;3.75
76784;PMS7003;66893;44.316;0.092;2023-06-24T04:45:27;6.00;6.00;5.00
76784;PMS7003;66893;44.316;0.092;2023-06-24T04:47:53;4.25;4.25;4.00
76784;PMS7003;66893;44.316;0.092;2023-06-24T04:50:18;5.75;5.00;5.00
76784;PMS7003;66893;44.316;0.092;2023-06-24T04:52:44;4.75;4.75;3.25
76784;PMS7003;66893;44.316;0.092;2023-06-24T04:55:09;5.75;5.00;4.75
76784;PMS7003;66893;44.316;0.092;2023-06-24T04:57:35;6.00;5.75;4.25
76784;PMS7003;66893;44.316;0.092;2023-06-24T05:00:01;6.25;6.00;5.00
76784;PMS7003;66893;44.316;0.092;2023-06-24T05:02:27;7.25;5.75;5.00
76784;PMS7003;66893;44.316;0.092;2023-06-24T05:04:52;6.25;5.75;5.00
76784;PMS7003;66893;44.316;0.092;2023-06-24T05:07:18;5.50;5.50;3.75
76784;PMS7003;66893;44.316;0.092;2023-06-24T05:09:46;6.75;5.00;3.75
76784;PMS7003;66893;44.316;0.092;2023-06-24T05:12:12;3.75;3.75;3.00
76784;PMS7003;66893;44.316;0.092;2023-06-24T05:14:37;5.25;4.75;4.00
76784;PMS7003;66893;44.316;0.092;2023-06-24T05:17:03;7.50;5.75;4.75
76784;PMS7003;66893;44.316;0.092;2023-06-24T05:19:29;5.25;5.25;5.00
76784;PMS7003;66893;44.316;0.092;2023-06-24T05:21:54;8.25;5.00;4.75
76784;PMS7003;66893;44.316;0.092;2023-06-24T05:24:20;7.00;7.00;6.00
76784;PMS7003;66893;44.316;0.092;2023-06-24T05:26:48;8.25;7.75;6.00
76784;PMS7003;66893;44.316;0.092;2023-06-24T05:29:14;7.75;7.25;6.00
76784;PMS7003;66893;44.316;0.092;2023-06-24T05:31:40;8.25;8.00;6.75
76784;PMS7003;66893;44.316;0.092;2023-06-24T05:34:06;9.00;7.25;5.50
76784;PMS7003;66893;44.316;0.092;2023-06-24T05:36:31;7.00;7.00;5.00
76784;PMS7003;66893;44.316;0.092;2023-06-24T05:38:57;6.50;6.25;5.00
76784;PMS7003;66893;44.316;0.092;2023-06-24T05:41:22;7.25;7.25;5.25
76784;PMS7003;66893;44.316;0.092;2023-06-24T05:43:48;6.00;6.00;5.00
76784;PMS7003;66893;44.316;0.092;2023-06-24T05:46:13;8.50;8.00;5.00
76784;PMS7003;66893;44.316;0.092;2023-06-24T05:48:39;11.00;7.25;6.25
76784;PMS7003;66893;44.316;0.092;2023-06-24T05:51:04;9.50;7.00;6.00
76784;PMS7003;66893;44.316;0.092;2023-06-24T05:53:30;8.75;8.50;7.00
76784;PMS7003;66893;44.316;0.092;2023-06-24T05:55:55;12.00;10.00;7.75
76784;PMS7003;66893;44.316;0.092;2023-06-24T05:58:20;11.25;11.25;8.50
76784;PMS7003;66893;44.316;0.092;2023-06-24T06:00:46;11.50;10.75;7.75
76784;PMS7003;66893;44.316;0.092;2023-06-24T06:03:11;10.50;10.25;7.75
76784;PMS7003;66893;44.316;0.092;2023-06-24T06:05:37;9.00;8.75;6.25
76784;PMS7003;66893;44.316;0.092;2023-06-24T06:08:02;11.25;10.25;8.00
76784;PMS7003;66893;44.316;0.092;2023-06-24T06:10:28;12.25;8.25;6.50
76784;PMS7003;66893;44.316;0.092;2023-06-24T06:12:53;11.75;11.75;7.00
76784;PMS7003;66893;44.316;0.092;2023-06-24T06:15:19;9.00;8.00;6.25
76784;PMS7003;66893;44.316;0.092;2023-06-24T06:17:45;7.50;6.75;5.25
76784;PMS7003;66893;44.316;0.092;2023-06-24T06:20:11;8.00;7.25;6.00
76784;PMS7003;66893;44.316;0.092;2023-06-24T06:22:36;5.25;5.00;3.00
76784;PMS7003;66893;44.316;0.092;2023-06-24T06:25:06;8.50;7.75;5.75
76784;PMS7003;66893;44.316;0.092;2023-06-24T06:27:32;8.00;8.00;6.00
76784;PMS7003;66893;44.316;0.092;2023-06-24T06:29:57;10.25;8.00;6.50
76784;PMS7003;66893;44.316;0.092;2023-06-24T06:32:23;10.50;8.75;6.75
76784;PMS7003;66893;44.316;0.092;2023-06-24T06:34:48;7.50;6.75;4.75
76784;PMS7003;66893;44.316;0.092;2023-06-24T06:37:13;10.50;8.00;6.00
76784;PMS7003;66893;44.316;0.092;2023-06-24T06:39:39;6.50;6.50;5.25
76784;PMS7003;66893;44.316;0.092;2023-06-24T06:42:05;10.50;8.25;5.00
76784;PMS7003;66893;44.316;0.092;2023-06-24T06:44:30;9.00;7.00;5.00
76784;PMS7003;66893;44.316;0.092;2023-06-24T06:46:56;9.50;7.50;6.75
76784;PMS7003;66893;44.316;0.092;2023-06-24T06:49:21;2.00;2.00;0.00
76784;PMS7003;66893;44.316;0.092;2023-06-24T06:51:47;6.50;6.50;5.00
76784;PMS7003;66893;44.316;0.092;2023-06-24T06:54:12;10.75;8.25;5.25
76784;PMS7003;66893;44.316;0.092;2023-06-24T06:56:38;8.00;8.00;5.50
76784;PMS7003;66893;44.316;0.092;2023-06-24T06:59:04;7.25;6.75;5.00
76784;PMS7003;66893;44.316;0.092;2023-06-24T07:01:30;6.00;6.00;4.25
76784;PMS7003;66893;44.316;0.092;2023-06-24T07:03:55;5.50;5.00;3.25
76784;PMS7003;66893;44.316;0.092;2023-06-24T07:06:20;7.75;7.25;4.50
76784;PMS7003;66893;44.316;0.092;2023-06-24T07:08:46;8.50;7.25;5.50
76784;PMS7003;66893;44.316;0.092;2023-06-24T07:11:12;6.25;6.00;5.00
76784;PMS7003;66893;44.316;0.092;2023-06-24T07:13:37;7.00;7.00;5.25
76784;PMS7003;66893;44.316;0.092;2023-06-24T07:16:02;6.75;6.75;5.00
76784;PMS7003;66893;44.316;0.092;2023-06-24T07:18:28;9.00;5.75;4.75
76784;PMS7003;66893;44.316;0.092;2023-06-24T07:20:55;6.50;6.00;5.00
76784;PMS7003;66893;44.316;0.092;2023-06-24T07:23:21;6.75;6.75;5.75
76784;PMS7003;66893;44.316;0.092;2023-06-24T07:25:46;10.00;6.25;5.00
76784;PMS7003;66893;44.316;0.092;2023-06-24T07:28:12;7.00;6.00;5.00
76784;PMS7003;66893;44.316;0.092;2023-06-24T07:30:37;6.75;5.25;4.75
76784;PMS7003;66893;44.316;0.092;2023-06-24T07:33:03;5.50;5.50;4.00
76784;PMS7003;66893;44.316;0.092;2023-06-24T07:35:30;6.75;6.00;4.75
76784;PMS7003;66893;44.316;0.092;2023-06-24T07:37:57;9.50;7.25;5.50
76784;PMS7003;66893;44.316;0.092;2023-06-24T07:40:23;7.50;7.50;5.75
76784;PMS7003;66893;44.316;0.092;2023-06-24T07:42:48;8.00;7.25;6.00
76784;PMS7003;66893;44.316;0.092;2023-06-24T07:45:14;7.25;6.75;5.25
76784;PMS7003;66893;44.316;0.092;2023-06-24T07:47:39;6.00;6.00;4.50
76784;PMS7003;66893;44.316;0.092;2023-06-24T07:50:05;7.00;7.00;5.75
76784;PMS7003;66893;44.316;0.092;2023-06-24T07:52:31;7.00;7.00;5.50
76784;PMS7003;66893;44.316;0.092;2023-06-24T07:54:56;5.25;5.25;4.25
76784;PMS7003;66893;44.316;0.092;2023-06-24T07:57:22;10.25;8.00;6.00
76784;PMS7003;66893;44.316;0.092;2023-06-24T07:59:47;6.75;6.75;5.25
76784;PMS7003;66893;44.316;0.092;2023-06-24T08:02:13;8.00;7.75;5.75
76784;PMS7003;66893;44.316;0.092;2023-06-24T08:04:38;7.00;6.00;4.75
76784;PMS7003;66893;44.316;0.092;2023-06-24T08:07:04;8.25;7.00;5.75
76784;PMS7003;66893;44.316;0.092;2023-06-24T08:09:30;7.00;7.00;5.25
76784;PMS7003;66893;44.316;0.092;2023-06-24T08:11:55;5.25;5.25;3.50
76784;PMS7003;66893;44.316;0.092;2023-06-24T08:14:21;7.00;6.50;5.00
76784;PMS7003;66893;44.316;0.092;2023-06-24T08:16:46;7.00;4.00;3.00
76784;PMS7003;66893;44.316;0.092;2023-06-24T08:19:12;7.00;7.00;5.50
76784;PMS7003;66893;44.316;0.092;2023-06-24T08:21:37;10.50;7.00;5.75
76784;PMS7003;66893;44.316;0.092;2023-06-24T08:24:03;8.00;6.75;5.00
76784;PMS7003;66893;44.316;0.092;2023-06-24T08:26:29;6.00;6.00;5.00
76784;PMS7003;66893;44.316;0.092;2023-06-24T08:28:55;8.50;7.50;5.50
76784;PMS7003;66893;44.316;0.092;2023-06-24T08:31:21;10.75;7.75;5.25
76784;PMS7003;66893;44.316;0.092;2023-06-24T08:33:51;7.25;6.00;5.00
76784;PMS7003;66893;44.316;0.092;2023-06-24T08:36:17;8.50;7.75;6.00
76784;PMS7003;66893;44.316;0.092;2023-06-24T08:38:42;6.50;6.50;5.25
76784;PMS7003;66893;44.316;0.092;2023-06-24T08:41:08;7.50;6.00;5.00
76784;PMS7003;66893;44.316;0.092;2023-06-24T08:43:33;6.00;6.00;5.00
76784;PMS7003;66893;44.316;0.092;2023-06-24T08:45:59;8.25;7.75;6.25
76784;PMS7003;66893;44.316;0.092;2023-06-24T08:48:24;6.75;6.75;5.00
76784;PMS7003;66893;44.316;0.092;2023-06-24T08:50:52;7.00;6.75;4.25
76784;PMS7003;66893;44.316;0.092;2023-06-24T08:53:21;6.75;5.75;4.25
76784;PMS7003;66893;44.316;0.092;2023-06-24T08:55:47;7.50;7.00;5.00
76784;PMS7003;66893;44.316;0.092;2023-06-24T08:58:18;7.00;7.00;5.00
76784;PMS7003;66893;44.316;0.092;2023-06-24T09:00:43;7.00;6.00;5.25
76784;PMS7003;66893;44.316;0.092;2023-06-24T09:03:09;6.00;4.50;4.00
76784;PMS7003;66893;44.316;0.092;2023-06-24T09:05:34;7.00;7.00;5.00
76784;PMS7003;66893;44.316;0.092;2023-06-24T09:07:59;6.25;6.25;5.00
76784;PMS7003;66893;44.316;0.092;2023-06-24T09:10:32;7.25;6.00;4.00
76784;PMS7003;66893;44.316;0.092;2023-06-24T09:13:02;7.00;5.75;4.00
76784;PMS7003;66893;44.316;0.092;2023-06-24T09:15:29;7.50;5.00;4.00
76784;PMS7003;66893;44.316;0.092;2023-06-24T09:17:56;5.00;5.00;3.00
76784;PMS7003;66893;44.316;0.092;2023-06-24T09:20:21;5.00;5.00;3.50
76784;PMS7003;66893;44.316;0.092;2023-06-24T09:22:47;5.00;5.00;4.00
76784;PMS7003;66893;44.316;0.092;2023-06-24T09:25:17;5.00;4.25;4.00
76784;PMS7003;66893;44.316;0.092;2023-06-24T09:27:47;8.50;5.75;4.00
76784;PMS7003;66893;44.316;0.092;2023-06-24T09:30:19;4.25;3.50;3.00
76784;PMS7003;66893;44.316;0.092;2023-06-24T09:32:47;9.75;7.75;5.25
76784;PMS7003;66893;44.316;0.092;2023-06-24T09:35:14;4.00;4.00;4.00
76784;PMS7003;66893;44.316;0.092;2023-06-24T09:37:39;5.50;4.25;3.75
76784;PMS7003;66893;44.316;0.092;2023-06-24T09:40:05;7.75;4.00;4.00
76784;PMS7003;66893;44.316;0.092;2023-06-24T09:42:33;4.75;4.75;3.50
76784;PMS7003;66893;44.316;0.092;2023-06-24T09:44:59;5.00;5.00;3.25
76784;PMS7003;66893;44.316;0.092;2023-06-24T09:47:29;6.50;5.00;4.00
76784;PMS7003;66893;44.316;0.092;2023-06-24T09:49:55;5.75;5.75;4.00
76784;PMS7003;66893;44.316;0.092;2023-06-24T09:52:20;3.50;3.50;3.00
76784;PMS7003;66893;44.316;0.092;2023-06-24T09:54:47;4.25;3.75;3.00
76784;PMS7003;66893;44.316;0.092;2023-06-24T09:57:16;6.00;4.50;3.00
76784;PMS7003;66893;44.316;0.092;2023-06-24T09:59:45;7.00;5.25;3.75
76784;PMS7003;66893;44.316;0.092;2023-06-24T10:02:12;6.00;6.00;4.00
76784;PMS7003;66893;44.316;0.092;2023-06-24T10:04:40;7.25;5.00;4.00
76784;PMS7003;66893;44.316;0.092;2023-06-24T10:07:06;6.75;5.00;3.75
76784;PMS7003;66893;44.316;0.092;2023-06-24T10:09:32;4.25;4.25;4.00
76784;PMS7003;66893;44.316;0.092;2023-06-24T10:11:58;4.00;4.00;3.00
76784;PMS7003;66893;44.316;0.092;2023-06-24T10:14:23;4.75;4.75;4.00
76784;PMS7003;66893;44.316;0.092;2023-06-24T10:16:49;6.25;5.25;4.00
76784;PMS7003;66893;44.316;0.092;2023-06-24T10:19:19;4.00;4.00;3.00
76784;PMS7003;66893;44.316;0.092;2023-06-24T10:21:53;6.75;4.75;4.75
76784;PMS7003;66893;44.316;0.092;2023-06-24T10:24:28;5.00;5.00;4.00
76784;PMS7003;66893;44.316;0.092;2023-06-24T10:26:54;5.25;4.50;3.50
76784;PMS7003;66893;44.316;0.092;2023-06-24T10:29:30;4.00;4.00;3.50
76784;PMS7003;66893;44.316;0.092;2023-06-24T10:31:55;6.75;5.00;4.00
76784;PMS7003;66893;44.316;0.092;2023-06-24T10:39:47;11.00;7.25;3.75
76784;PMS7003;66893;44.316;0.092;2023-06-24T10:44:54;10.25;7.00;4.50
76784;PMS7003;66893;44.316;0.092;2023-06-24T10:47:25;7.75;6.25;4.25
76784;PMS7003;66893;44.316;0.092;2023-06-24T10:49:52;9.50;6.25;4.00
76784;PMS7003;66893;44.316;0.092;2023-06-24T10:52:18;10.50;5.00;4.00
76784;PMS7003;66893;44.316;0.092;2023-06-24T10:54:47;7.00;6.00;4.25
76784;PMS7003;66893;44.316;0.092;2023-06-24T10:57:14;8.00;6.00;4.00
76784;PMS7003;66893;44.316;0.092;2023-06-24T10:59:40;8.50;7.00;4.00
76784;PMS7003;66893;44.316;0.092;2023-06-24T11:02:12;10.25;6.25;4.00
76784;PMS7003;66893;44.316;0.092;2023-06-24T11:04:42;8.25;6.00;5.50
76784;PMS7003;66893;44.316;0.092;2023-06-24T11:07:09;5.25;4.50;3.00
76784;PMS7003;66893;44.316;0.092;2023-06-24T11:09:35;7.50;4.25;3.75
76784;PMS7003;66893;44.316;0.092;2023-06-24T11:12:03;5.50;4.75;3.00
76784;PMS7003;66893;44.316;0.092;2023-06-24T11:14:29;9.00;4.50;4.00
76784;PMS7003;66893;44.316;0.092;2023-06-24T11:16:55;5.00;4.50;3.25
76784;PMS7003;66893;44.316;0.092;2023-06-24T11:19:20;4.50;4.50;4.00
76784;PMS7003;66893;44.316;0.092;2023-06-24T11:21:45;6.25;4.00;4.00
76784;PMS7003;66893;44.316;0.092;2023-06-24T11:24:11;6.50;4.00;3.25
76784;PMS7003;66893;44.316;0.092;2023-06-24T11:26:36;4.00;4.00;3.00
76784;PMS7003;66893;44.316;0.092;2023-06-24T11:29:09;4.25;4.00;3.00
76784;PMS7003;66893;44.316;0.092;2023-06-24T11:31:36;4.75;4.00;3.00
76784;PMS7003;66893;44.316;0.092;2023-06-24T11:34:02;3.00;3.00;3.00
76784;PMS7003;66893;44.316;0.092;2023-06-24T11:36:28;4.00;4.00;3.00
76784;PMS7003;66893;44.316;0.092;2023-06-24T11:38:54;5.25;5.00;4.00
76784;PMS7003;66893;44.316;0.092;2023-06-24T11:41:23;6.00;5.00;3.25
76784;PMS7003;66893;44.316;0.092;2023-06-24T11:43:50;3.75;3.75;3.25
76784;PMS7003;66893;44.316;0.092;2023-06-24T11:46:28;5.00;4.75;3.75
76784;PMS7003;66893;44.316;0.092;2023-06-24T11:49:07;6.00;4.00;3.00
76784;PMS7003;66893;44.316;0.092;2023-06-24T11:51:33;6.50;5.00;4.00
76784;PMS7003;66893;44.316;0.092;2023-06-24T11:54:03;5.00;5.00;4.00
76784;PMS7003;66893;44.316;0.092;2023-06-24T11:56:39;6.00;4.50;4.00
76784;PMS7003;66893;44.316;0.092;2023-06-24T11:59:06;3.00;3.00;2.50
76784;PMS7003;66893;44.316;0.092;2023-06-24T12:01:32;3.25;3.25;3.00
76784;PMS7003;66893;44.316;0.092;2023-06-24T12:04:09;4.25;3.50;2.00
76784;PMS7003;66893;44.316;0.092;2023-06-24T12:06:41;2.50;2.50;2.00
76784;PMS7003;66893;44.316;0.092;2023-06-24T12:09:09;4.00;3.75;3.00
76784;PMS7003;66893;44.316;0.092;2023-06-24T12:11:35;5.75;4.00;3.25
76784;PMS7003;66893;44.316;0.092;2023-06-24T12:14:01;5.25;2.50;1.50
76784;PMS7003;66893;44.316;0.092;2023-06-24T12:16:27;4.00;4.00;3.00
76784;PMS7003;66893;44.316;0.092;2023-06-24T12:18:53;2.25;2.00;2.00
76784;PMS7003;66893;44.316;0.092;2023-06-24T12:21:19;3.25;3.25;2.25
76784;PMS7003;66893;44.316;0.092;2023-06-24T12:23:44;3.75;3.75;2.50
76784;PMS7003;66893;44.316;0.092;2023-06-24T12:26:10;4.75;4.75;3.25
76784;PMS7003;66893;44.316;0.092;2023-06-24T12:28:36;4.00;4.00;3.25
76784;PMS7003;66893;44.316;0.092;2023-06-24T12:31:02;4.00;3.25;3.00
76784;PMS7003;66893;44.316;0.092;2023-06-24T12:33:27;4.50;3.50;3.00
76784;PMS7003;66893;44.316;0.092;2023-06-24T12:35:53;5.25;3.50;3.00
76784;PMS7003;66893;44.316;0.092;2023-06-24T12:38:18;3.00;3.00;2.75
76784;PMS7003;66893;44.316;0.092;2023-06-24T12:40:44;3.25;3.00;2.50
76784;PMS7003;66893;44.316;0.092;2023-06-24T12:43:10;3.00;3.00;3.00
76784;PMS7003;66893;44.316;0.092;2023-06-24T12:45:36;2.50;2.50;2.00
76784;PMS7003;66893;44.316;0.092;2023-06-24T12:48:03;4.00;4.00;3.00
76784;PMS7003;66893;44.316;0.092;2023-06-24T12:50:28;4.00;4.00;3.25
76784;PMS7003;66893;44.316;0.092;2023-06-24T12:52:56;3.00;3.00;2.00
76784;PMS7003;66893;44.316;0.092;2023-06-24T12:55:22;3.00;3.00;2.50
76784;PMS7003;66893;44.316;0.092;2023-06-24T12:57:47;4.00;3.00;2.75
76784;PMS7003;66893;44.316;0.092;2023-06-24T13:00:13;3.00;3.00;2.75
76784;PMS7003;66893;44.316;0.092;2023-06-24T13:02:39;2.50;2.50;2.00
76784;PMS7003;66893;44.316;0.092;2023-06-24T13:05:05;3.00;2.25;2.25
76784;PMS7003;66893;44.316;0.092;2023-06-24T13:07:30;3.00;3.00;2.25
76784;PMS7003;66893;44.316;0.092;2023-06-24T13:09:56;4.00;3.75;3.00
76784;PMS7003;66893;44.316;0.092;2023-06-24T13:12:21;3.00;3.00;2.25
76784;PMS7003;66893;44.316;0.092;2023-06-24T13:14:47;2.75;2.75;2.00
76784;PMS7003;66893;44.316;0.092;2023-06-24T13:17:13;5.25;3.00;2.50
76784;PMS7003;66893;44.316;0.092;2023-06-24T13:19:38;5.00;4.00;3.00
76784;PMS7003;66893;44.316;0.092;2023-06-24T13:22:04;3.00;2.25;2.00
76784;PMS7003;66893;44.316;0.092;2023-06-24T13:24:29;3.00;3.00;2.50
76784;PMS7003;66893;44.316;0.092;2023-06-24T13:26:55;3.00;3.00;2.00
76784;PMS7003;66893;44.316;0.092;2023-06-24T13:29:21;4.00;3.00;2.75
76784;PMS7003;66893;44.316;0.092;2023-06-24T13:31:47;2.75;1.25;1.00
76784;PMS7003;66893;44.316;0.092;2023-06-24T13:34:12;3.00;3.00;2.75
76784;PMS7003;66893;44.316;0.092;2023-06-24T13:36:38;3.00;3.00;3.00
76784;PMS7003;66893;44.316;0.092;2023-06-24T13:39:05;2.00;2.00;2.00
76784;PMS7003;66893;44.316;0.092;2023-06-24T13:41:32;5.00;4.00;3.00
76784;PMS7003;66893;44.316;0.092;2023-06-24T13:43:58;5.00;3.50;2.25
76784;PMS7003;66893;44.316;0.092;2023-06-24T13:46:24;5.50;3.25;3.00
76784;PMS7003;66893;44.316;0.092;2023-06-24T13:48:50;2.00;2.00;2.00
76784;PMS7003;66893;44.316;0.092;2023-06-24T13:51:16;2.00;2.00;1.50
76784;PMS7003;66893;44.316;0.092;2023-06-24T13:53:43;2.00;2.00;2.00
76784;PMS7003;66893;44.316;0.092;2023-06-24T13:56:08;3.00;3.00;2.25
76784;PMS7003;66893;44.316;0.092;2023-06-24T13:58:34;3.50;3.00;2.00
76784;PMS7003;66893;44.316;0.092;2023-06-24T14:00:59;6.75;4.50;3.00
76784;PMS7003;66893;44.316;0.092;2023-06-24T14:03:25;5.00;4.50;3.50
76784;PMS7003;66893;44.316;0.092;2023-06-24T14:05:50;5.75;4.50;3.00
76784;PMS7003;66893;44.316;0.092;2023-06-24T14:08:16;5.00;3.25;2.25
76784;PMS7003;66893;44.316;0.092;2023-06-24T14:10:41;4.75;3.00;2.50
76784;PMS7003;66893;44.316;0.092;2023-06-24T14:13:07;3.00;3.00;1.75
76784;PMS7003;66893;44.316;0.092;2023-06-24T14:15:32;4.75;3.75;2.50
76784;PMS7003;66893;44.316;0.092;2023-06-24T14:17:57;4.75;4.00;3.00
76784;PMS7003;66893;44.316;0.092;2023-06-24T14:20:23;3.75;3.00;2.00
76784;PMS7003;66893;44.316;0.092;2023-06-24T14:22:50;2.75;2.75;2.00
76784;PMS7003;66893;44.316;0.092;2023-06-24T14:25:15;7.75;3.00;2.50
76784;PMS7003;66893;44.316;0.092;2023-06-24T14:27:41;4.25;4.25;3.50
76784;PMS7003;66893;44.316;0.092;2023-06-24T14:30:07;3.25;3.25;3.00
76784;PMS7003;66893;44.316;0.092;2023-06-24T14:32:32;4.25;3.00;2.00
76784;PMS7003;66893;44.316;0.092;2023-06-24T14:34:58;5.00;3.50;3.00
76784;PMS7003;66893;44.316;0.092;2023-06-24T14:37:23;4.25;4.25;3.75
76784;PMS7003;66893;44.316;0.092;2023-06-24T14:39:49;3.00;2.50;2.25